createdAt,value
2023-10-26T00:11:52.912Z,5.50
2023-10-26T00:26:55.926Z,7.40
2023-10-26T00:57:19.987Z,6.90
2023-10-26T01:27:40.690Z,7.50
2023-10-26T01:42:43.427Z,9.00
2023-10-26T01:57:45.912Z,8.30
2023-10-26T02:12:51.229Z,9.70
2023-10-26T02:27:54.294Z,9.80
2023-10-26T02:42:57.172Z,10.10
2023-10-26T02:58:00.175Z,11.10
2023-10-26T03:13:17.364Z,9.30
2023-10-26T03:28:20.236Z,9.00
2023-10-26T03:43:37.422Z,10.00
2023-10-26T03:58:40.031Z,11.40
2023-10-26T04:13:42.589Z,11.10
2023-10-26T04:28:51.952Z,12.20
2023-10-26T04:43:55.284Z,10.20
2023-10-26T04:59:13.186Z,9.60
2023-10-26T05:14:16.065Z,8.20
2023-10-26T05:29:18.858Z,12.10
2023-10-26T05:44:21.761Z,10.50
2023-10-26T05:59:24.565Z,9.60
2023-10-26T06:14:27.475Z,9.70
2023-10-26T06:29:30.271Z,9.10
2023-10-26T06:44:33.081Z,8.70
2023-10-26T06:59:36.377Z,9.90
2023-10-26T07:14:41.417Z,7.00
2023-10-26T07:29:45.091Z,6.10
2023-10-26T07:45:02.678Z,6.30
2023-10-26T08:00:19.800Z,6.60
2023-10-26T08:26:59.550Z,8.00
2023-10-26T08:57:20.065Z,11.70
2023-10-26T09:12:37.107Z,9.80
2023-10-26T09:27:41.879Z,9.40
2023-10-26T09:42:44.712Z,8.90
2023-10-26T09:58:09.531Z,9.20
2023-10-26T10:13:39.133Z,8.80
2023-10-26T10:28:56.480Z,8.60
2023-10-26T10:43:59.648Z,9.50
2023-10-26T10:59:20.808Z,9.50
2023-10-26T11:29:26.520Z,10.30
2023-10-26T11:44:30.641Z,11.90
2023-10-26T11:59:47.920Z,12.90
2023-10-26T12:14:51.013Z,13.30
2023-10-26T12:29:53.904Z,14.90
2023-10-26T12:44:56.717Z,12.90
2023-10-26T13:15:17.139Z,13.30
2023-10-26T13:30:24.116Z,13.40
2023-10-26T13:45:27.033Z,14.70
2023-10-26T14:00:30.012Z,14.10
2023-10-26T14:15:47.511Z,12.60
2023-10-26T14:30:50.074Z,13.40
2023-10-26T14:45:53.225Z,13.00
2023-10-26T15:00:57.114Z,12.70
2023-10-26T15:16:01.056Z,12.90
2023-10-26T15:31:04.522Z,11.20
2023-10-26T15:46:07.397Z,12.70
2023-10-26T16:16:29.596Z,10.50
2023-10-26T16:31:32.499Z,8.20
2023-10-26T16:46:35.287Z,8.00
2023-10-26T17:01:38.136Z,8.50
2023-10-26T17:32:12.825Z,8.70
2023-10-26T18:02:35.101Z,3.70
2023-10-26T18:17:37.663Z,4.60
2023-10-26T19:03:29.622Z,4.20
2023-10-26T19:18:32.794Z,6.20
2023-10-26T19:33:36.073Z,4.40
2023-10-26T19:48:39.477Z,5.60
2023-10-26T20:03:42.709Z,5.20
2023-10-26T20:18:48.815Z,5.70
2023-10-26T20:33:52.892Z,6.70
2023-10-26T20:48:56.344Z,6.90
2023-10-26T21:03:59.807Z,5.50
2023-10-26T21:19:02.939Z,5.90
2023-10-26T21:34:06.182Z,3.80
2023-10-26T21:49:09.618Z,3.90
2023-10-26T22:04:22.025Z,4.50
2023-10-26T22:49:48.522Z,4.00
2023-10-26T23:04:55.432Z,4.90
2023-10-26T23:20:13.035Z,4.60
2023-10-26T23:35:31.763Z,5.70
2023-10-26T23:50:34.661Z,5.80
